Time;durP1;ratioP1;P1;durP2;ratioP2;P2;SDS_P1;SDS_P2;PMS_P1;PMS_P2;Temp;Humidity;BMP_temperature;BMP_pressure;BME280_temperature;BME280_humidity;BME280_pressure;Samples;Min_cycle;Max_cycle;Signal;HPM_P1;HPM_P2
2022/08/30 00:03:13;;;;;;;;;;;;;;;23.78;80.58;97058.91;602439;235;64771;-67
2022/08/30 00:05:42;;;;;;;;;;;;;;;23.78;80.59;97060.80;602547;232;63018;-67
2022/08/30 00:08:11;;;;;;;;;;;;;;;23.78;80.61;97060.80;602634;235;63311;-68
2022/08/30 00:10:40;;;;;;;;;;;;;;;23.77;80.60;97060.02;602665;235;65202;-67
2022/08/30 00:13:11;;;;;;;;;;;;;;;23.78;80.60;97058.13;602619;235;62728;-67
2022/08/30 00:15:39;;;;;;;;;;;;;;;23.78;80.64;97058.13;602623;235;63356;-67
2022/08/30 00:18:08;;;;;;;;;;;;;;;23.77;80.65;97062.70;602649;235;63231;-68
2022/08/30 00:20:37;;;;;;;;;;;;;;;23.77;80.65;97073.43;602624;235;64976;-68
2022/08/30 00:23:06;;;;;;;;;;;;;;;23.78;80.67;97079.59;602667;235;62856;-67
2022/08/30 00:25:34;;;;;;;;;;;;;;;23.78;80.74;97080.38;602595;235;63115;-67
2022/08/30 00:28:03;;;;;;;;;;;;;;;23.77;80.72;97084.16;602645;235;64897;-67
2022/08/30 00:30:31;;;;;;;;;;;;;;;23.78;80.75;97075.02;602607;235;65843;-67
2022/08/30 00:32:59;;;;;;;;;;;;;;;23.78;80.75;97085.75;602669;235;65174;-67
2022/08/30 00:35:27;;;;;;;;;;;;;;;23.76;80.77;97074.50;602611;235;62467;-67
2022/08/30 00:37:56;;;;;;;;;;;;;;;23.78;80.75;97079.59;602616;235;65462;-67
2022/08/30 00:40:27;;;;;;;;;;;;;;;23.77;80.71;97078.80;602642;235;63116;-67
2022/08/30 00:42:59;;;;;;;;;;;;;;;23.77;80.70;97070.75;602632;235;64691;-67
2022/08/30 00:45:29;;;;;;;;;;;;;;;23.78;80.71;97076.91;602687;235;62985;-67
2022/08/30 00:47:59;;;;;;;;;;;;;;;23.77;80.71;97065.38;602617;235;62770;-67
2022/08/30 00:50:28;;;;;;;;;;;;;;;23.77;80.73;97061.91;602668;235;65067;-67
2022/08/30 00:52:58;;;;;;;;;;;;;;;23.77;80.74;97065.38;602496;235;65121;-67
2022/08/30 00:55:27;;;;;;;;;;;;;;;23.78;80.79;97082.27;602706;235;64995;-67
2022/08/30 00:57:57;;;;;;;;;;;;;;;23.77;80.78;97076.11;602634;235;65140;-67
2022/08/30 01:00:25;;;;;;;;;;;;;;;23.77;80.80;97078.00;602663;235;62449;-67
2022/08/30 01:02:53;;;;;;;;;;;;;;;23.77;80.79;97072.64;602610;235;64912;-67
2022/08/30 01:05:21;;;;;;;;;;;;;;;23.77;80.81;97075.32;602581;235;65141;-67
2022/08/30 01:07:49;;;;;;;;;;;;;;;23.78;80.80;97074.22;602668;235;63088;-67
2022/08/30 01:10:18;;;;;;;;;;;;;;;23.77;80.80;97073.43;602643;235;65050;-68
2022/08/30 01:12:47;;;;;;;;;;;;;;;23.77;80.79;97075.32;602579;235;65065;-67
2022/08/30 01:15:16;;;;;;;;;;;;;;;23.77;80.79;97065.38;602654;235;65632;-68
2022/08/30 01:17:45;;;;;;;;;;;;;;;23.77;80.81;97065.38;602575;235;65445;-67
2022/08/30 01:20:21;;;;;;;;;;;;;;;23.76;80.81;97077.19;602649;235;65153;-67
2022/08/30 01:22:50;;;;;;;;;;;;;;;23.77;80.80;97069.95;602285;235;66425;-67
2022/08/30 01:25:22;;;;;;;;;;;;;;;23.78;80.79;97075.02;602632;235;65161;-67
2022/08/30 01:27:52;;;;;;;;;;;;;;;23.77;80.82;97064.59;602632;235;62744;-66
2022/08/30 01:30:22;;;;;;;;;;;;;;;23.77;80.81;97060.02;602617;235;65468;-67
2022/08/30 01:32:52;;;;;;;;;;;;;;;23.77;80.83;97051.17;602659;235;65238;-67
2022/08/30 01:35:20;;;;;;;;;;;;;;;23.77;80.87;97053.86;602540;235;62438;-66
2022/08/30 01:37:49;;;;;;;;;;;;;;;23.77;80.89;97051.97;602659;235;65077;-67
2022/08/30 01:40:18;;;;;;;;;;;;;;;23.77;80.92;97056.53;602584;235;63857;-66
2022/08/30 01:42:47;;;;;;;;;;;;;;;23.77;80.96;97053.86;602609;235;63035;-67
2022/08/30 01:45:15;;;;;;;;;;;;;;;23.77;80.95;97057.33;602616;235;63380;-67
2022/08/30 01:47:43;;;;;;;;;;;;;;;23.77;81.00;97057.33;602614;235;65211;-66
2022/08/30 01:50:11;;;;;;;;;;;;;;;23.76;81.05;97049.55;602647;235;65058;-67
2022/08/30 01:52:39;;;;;;;;;;;;;;;23.77;81.06;97048.48;602627;235;65459;-67
2022/08/30 01:55:08;;;;;;;;;;;;;;;23.76;81.03;97039.61;602630;235;65174;-66
2022/08/30 01:57:36;;;;;;;;;;;;;;;23.76;80.98;97050.34;602625;235;65180;-67
2022/08/30 02:00:06;;;;;;;;;;;;;;;23.77;80.99;97043.12;602698;235;63405;-66
2022/08/30 02:02:35;;;;;;;;;;;;;;;23.76;80.99;97050.34;602534;235;43287;-66
2022/08/30 02:05:04;;;;;;;;;;;;;;;23.77;80.98;97053.86;602624;232;65045;-66
2022/08/30 02:07:33;;;;;;;;;;;;;;;23.77;81.00;97045.80;602597;235;65471;-66
2022/08/30 02:10:01;;;;;;;;;;;;;;;23.77;80.97;97045.80;602699;235;65034;-66
2022/08/30 02:12:29;;;;;;;;;;;;;;;23.76;80.98;97039.61;602609;235;62914;-66
2022/08/30 02:14:57;;;;;;;;;;;;;;;23.76;80.97;97044.98;602632;235;65391;-66
2022/08/30 02:17:25;;;;;;;;;;;;;;;23.76;80.96;97050.34;602695;235;65077;-66
2022/08/30 02:19:54;;;;;;;;;;;;;;;23.76;80.95;97039.61;602612;235;65064;-67
2022/08/30 02:22:22;;;;;;;;;;;;;;;23.77;80.95;97033.18;602671;235;65669;-66
2022/08/30 02:24:50;;;;;;;;;;;;;;;23.76;80.97;97028.87;602681;235;64895;-67
2022/08/30 02:27:19;;;;;;;;;;;;;;;23.76;80.98;97028.87;602676;235;63182;-66
2022/08/30 02:29:48;;;;;;;;;;;;;;;23.76;80.98;97028.09;602639;235;65640;-67
2022/08/30 02:32:16;;;;;;;;;;;;;;;23.77;81.00;97032.39;602670;235;63231;-66
2022/08/30 02:34:46;;;;;;;;;;;;;;;23.76;81.08;97033.45;602609;235;65137;-66
2022/08/30 02:37:14;;;;;;;;;;;;;;;23.77;81.09;97037.75;602690;235;63332;-66
2022/08/30 02:39:44;;;;;;;;;;;;;;;23.76;81.09;97030.77;602686;235;65075;-66
2022/08/30 02:42:13;;;;;;;;;;;;;;;23.77;81.05;97035.07;602620;235;65039;-66
2022/08/30 02:44:42;;;;;;;;;;;;;;;23.76;81.01;97036.14;602672;235;65499;-66
2022/08/30 02:47:11;;;;;;;;;;;;;;;23.76;81.00;97038.82;602574;235;65339;-66
2022/08/30 02:49:39;;;;;;;;;;;;;;;23.76;80.97;97034.25;602694;235;62666;-66
2022/08/30 02:52:08;;;;;;;;;;;;;;;23.76;81.03;97036.93;602632;235;63078;-66
2022/08/30 02:54:36;;;;;;;;;;;;;;;23.77;81.07;97029.70;602662;235;63023;-66
2022/08/30 02:57:05;;;;;;;;;;;;;;;23.76;81.09;97025.41;602608;235;65063;-66
2022/08/30 02:59:36;;;;;;;;;;;;;;;23.76;81.05;97022.72;602658;235;65706;-67
2022/08/30 03:02:04;;;;;;;;;;;;;;;23.75;81.08;97027.30;602628;234;65221;-67
2022/08/30 03:04:32;;;;;;;;;;;;;;;23.76;81.09;97028.87;602584;235;63192;-67
2022/08/30 03:07:00;;;;;;;;;;;;;;;23.76;81.12;97033.45;602679;235;62730;-67
2022/08/30 03:09:28;;;;;;;;;;;;;;;23.76;81.12;97038.82;602620;235;65163;-67
2022/08/30 03:11:56;;;;;;;;;;;;;;;23.75;81.07;97038.03;602663;235;62986;-67
2022/08/30 03:14:24;;;;;;;;;;;;;;;23.76;81.12;97039.61;602643;235;66953;-67
2022/08/30 03:16:52;;;;;;;;;;;;;;;23.75;81.15;97038.03;602688;235;65194;-67
2022/08/30 03:19:20;;;;;;;;;;;;;;;23.75;81.16;97034.55;602645;235;64936;-67
2022/08/30 03:21:49;;;;;;;;;;;;;;;23.75;81.15;97032.66;602620;235;65563;-67
2022/08/30 03:24:17;;;;;;;;;;;;;;;23.77;81.13;97032.39;602640;235;65048;-67
2022/08/30 03:26:46;;;;;;;;;;;;;;;23.76;81.16;97033.45;602641;235;65099;-68
2022/08/30 03:29:15;;;;;;;;;;;;;;;23.76;81.17;97031.56;602609;235;65926;-67
2022/08/30 03:31:43;;;;;;;;;;;;;;;23.76;81.22;97031.56;602658;235;65142;-67
2022/08/30 03:34:12;;;;;;;;;;;;;;;23.75;81.23;97038.03;602666;235;63010;-67
2022/08/30 03:36:40;;;;;;;;;;;;;;;23.75;81.26;97031.88;602600;235;63256;-67
2022/08/30 03:39:09;;;;;;;;;;;;;;;23.76;81.25;97030.77;602684;235;62815;-67
2022/08/30 03:41:38;;;;;;;;;;;;;;;23.76;81.28;97033.45;602619;235;65110;-67
2022/08/30 03:44:07;;;;;;;;;;;;;;;23.75;81.28;97034.55;602640;235;65638;-67
2022/08/30 03:46:35;;;;;;;;;;;;;;;23.75;81.28;97031.88;602627;235;63568;-67
2022/08/30 03:49:03;;;;;;;;;;;;;;;23.75;81.31;97035.34;602676;235;62612;-67
2022/08/30 03:51:32;;;;;;;;;;;;;;;23.75;81.33;97037.23;602600;235;65656;-67
2022/08/30 03:54:01;;;;;;;;;;;;;;;23.76;81.33;97038.82;602672;235;65331;-67
2022/08/30 03:56:30;;;;;;;;;;;;;;;23.75;81.35;97040.71;602617;235;64853;-67
2022/08/30 03:58:58;;;;;;;;;;;;;;;23.75;81.38;97042.60;602601;235;65266;-67
2022/08/30 04:01:26;;;;;;;;;;;;;;;23.75;81.36;97046.08;602684;235;63156;-67
2022/08/30 04:03:55;;;;;;;;;;;;;;;23.75;81.38;97038.03;602602;235;65080;-67
2022/08/30 04:06:23;;;;;;;;;;;;;;;23.75;81.43;97048.77;602509;235;61364;-67
2022/08/30 04:08:51;;;;;;;;;;;;;;;23.76;81.45;97049.55;602462;233;65451;-67
2022/08/30 04:11:20;;;;;;;;;;;;;;;23.76;81.43;97046.88;602466;235;65141;-67
2022/08/30 04:13:50;;;;;;;;;;;;;;;23.75;81.46;97051.45;602451;235;63638;-67
2022/08/30 04:16:19;;;;;;;;;;;;;;;23.75;81.46;97050.66;602484;235;65594;-67
2022/08/30 04:18:48;;;;;;;;;;;;;;;23.75;81.47;97051.45;602275;235;64931;-66
2022/08/30 04:21:16;;;;;;;;;;;;;;;23.76;81.50;97054.92;602465;235;63387;-66
2022/08/30 04:23:46;;;;;;;;;;;;;;;23.75;81.52;97054.13;602494;235;65136;-67
2022/08/30 04:26:14;;;;;;;;;;;;;;;23.75;81.53;97050.66;602465;235;65126;-66
2022/08/30 04:28:42;;;;;;;;;;;;;;;23.75;81.62;97056.81;602520;233;65366;-66
2022/08/30 04:31:11;;;;;;;;;;;;;;;23.75;81.64;97056.02;602433;234;65229;-67
2022/08/30 04:33:40;;;;;;;;;;;;;;;23.75;81.66;97058.70;602497;234;65152;-66
2022/08/30 04:36:10;;;;;;;;;;;;;;;23.74;81.64;97057.91;602440;235;65629;-66
2022/08/30 04:38:38;;;;;;;;;;;;;;;23.74;81.62;97057.91;602521;235;63192;-67
2022/08/30 04:41:15;;;;;;;;;;;;;;;23.75;81.66;97059.50;602471;235;62981;-67
2022/08/30 04:43:44;;;;;;;;;;;;;;;23.75;81.67;97066.75;602408;235;65615;-66
2022/08/30 04:46:14;;;;;;;;;;;;;;;23.75;81.67;97070.23;602546;235;66172;-66
2022/08/30 04:48:42;;;;;;;;;;;;;;;23.75;81.75;97069.44;602449;234;63121;-67
2022/08/30 04:51:12;;;;;;;;;;;;;;;23.75;81.71;97069.44;602450;234;65454;-67
2022/08/30 04:53:42;;;;;;;;;;;;;;;23.74;81.77;97067.84;602406;235;64636;-67
2022/08/30 04:56:12;;;;;;;;;;;;;;;23.74;81.76;97074.01;602476;235;65098;-66
2022/08/30 04:58:40;;;;;;;;;;;;;;;23.75;81.78;97074.80;602481;235;63090;-66
2022/08/30 05:01:09;;;;;;;;;;;;;;;23.74;81.84;97076.69;602498;235;65238;-66
2022/08/30 05:03:37;;;;;;;;;;;;;;;23.74;81.89;97079.38;602455;233;62900;-67
2022/08/30 05:06:06;;;;;;;;;;;;;;;23.74;81.88;97078.58;602552;234;62632;-67
2022/08/30 05:08:42;;;;;;;;;;;;;;;23.74;81.88;97083.95;602629;235;62893;-67
2022/08/30 05:11:08;;;;;;;;;;;;;;;23.74;81.87;97083.95;602365;235;65735;-67
2022/08/30 05:13:46;;;;;;;;;;;;;;;23.73;81.92;97085.81;602582;235;65012;-67
2022/08/30 05:16:18;;;;;;;;;;;;;;;23.74;81.94;97083.95;602498;234;46057;-67
2022/08/30 05:18:51;;;;;;;;;;;;;;;23.74;82.00;97083.95;602525;235;64909;-67
2022/08/30 05:21:21;;;;;;;;;;;;;;;23.75;82.07;97090.91;602568;234;46767;-67
2022/08/30 05:23:51;;;;;;;;;;;;;;;23.74;82.07;97090.11;602630;235;63276;-67
2022/08/30 05:26:21;;;;;;;;;;;;;;;23.73;82.07;97088.49;602483;234;65119;-67
2022/08/30 05:28:51;;;;;;;;;;;;;;;23.73;82.07;97082.33;602650;235;66032;-67
2022/08/30 05:31:21;;;;;;;;;;;;;;;23.73;82.14;97088.49;602652;235;64952;-67
2022/08/30 05:33:50;;;;;;;;;;;;;;;23.73;82.16;97088.49;602573;235;65154;-67
2022/08/30 05:36:20;;;;;;;;;;;;;;;23.74;82.16;97092.00;602698;235;65636;-67
2022/08/30 05:38:52;;;;;;;;;;;;;;;23.73;82.21;97091.17;602641;235;62995;-68
2022/08/30 05:41:21;;;;;;;;;;;;;;;23.73;82.25;97085.81;602502;235;63123;-66
2022/08/30 05:43:51;;;;;;;;;;;;;;;23.73;82.30;97083.13;602678;235;65641;-68
2022/08/30 05:46:20;;;;;;;;;;;;;;;23.73;82.29;97082.33;602636;235;66233;-66
2022/08/30 05:48:52;;;;;;;;;;;;;;;23.74;82.33;97086.63;602647;235;65228;-67
2022/08/30 05:51:21;;;;;;;;;;;;;;;23.73;82.34;97085.02;602621;235;65717;-67
2022/08/30 05:53:49;;;;;;;;;;;;;;;23.73;82.37;97085.02;602569;235;65046;-67
2022/08/30 05:56:18;;;;;;;;;;;;;;;23.73;82.35;97087.70;602599;235;64821;-68
2022/08/30 05:58:46;;;;;;;;;;;;;;;23.73;82.37;97088.49;602064;235;63039;-67
2022/08/30 06:01:24;;;;;;;;;;;;;;;23.74;82.32;97089.31;602478;229;62692;-67
2022/08/30 06:03:53;;;;;;;;;;;;;;;23.74;82.42;97094.69;600719;236;65043;-66
2022/08/30 06:06:21;;;;;;;;;;;;;;;23.72;81.99;97092.27;600730;236;62951;-67
2022/08/30 06:08:49;;;;;;;;;;;;;;;23.74;82.56;97083.95;600713;236;62835;-66
2022/08/30 06:11:18;;;;;;;;;;;;;;;23.74;82.78;97084.74;600835;236;65212;-66
2022/08/30 06:13:46;;;;;;;;;;;;;;;23.73;83.20;97077.76;600851;236;63307;-66
2022/08/30 06:16:15;;;;;;;;;;;;;;;23.73;82.75;97082.33;600888;236;65640;-66
2022/08/30 06:18:43;;;;;;;;;;;;;;;23.72;81.73;97086.91;602687;225;64936;-67
2022/08/30 06:21:21;;;;;;;;;;;;;;;23.72;81.89;97078.86;602562;225;63271;-67
2022/08/30 06:23:49;;;;;;;;;;;;;;;23.74;81.85;97081.27;600412;236;63134;-64
2022/08/30 06:26:17;;;;;;;;;;;;;;;23.74;82.14;97089.31;600217;236;64900;-65
2022/08/30 06:28:45;;;;;;;;;;;;;;;23.75;82.31;97085.53;600369;236;63116;-62
2022/08/30 06:31:14;;;;;;;;;;;;;;;23.74;81.80;97084.74;600312;236;62577;-62
2022/08/30 06:33:42;;;;;;;;;;;;;;;23.76;82.03;97084.44;600287;236;65072;-63
2022/08/30 06:36:12;;;;;;;;;;;;;;;23.76;82.81;97084.44;600247;236;62800;-63
2022/08/30 06:38:41;;;;;;;;;;;;;;;23.77;83.50;97088.73;600259;236;65198;-65
2022/08/30 06:41:10;;;;;;;;;;;;;;;23.76;83.81;97087.91;600159;236;65164;-66
2022/08/30 06:43:39;;;;;;;;;;;;;;;23.77;83.50;97089.53;600415;236;63158;-66
2022/08/30 06:46:08;;;;;;;;;;;;;;;23.78;84.51;97087.64;600601;230;63202;-66
2022/08/30 06:48:37;;;;;;;;;;;;;;;23.76;84.66;97081.75;599813;236;62469;-66
2022/08/30 06:51:06;;;;;;;;;;;;;;;23.76;84.65;97081.75;599515;236;65492;-66
2022/08/30 06:53:34;;;;;;;;;;;;;;;23.75;84.67;97075.59;596302;236;62475;-66
2022/08/30 06:56:06;;;;;;;;;;;;;;;23.75;84.56;97085.53;589411;241;65088;-66
2022/08/30 06:58:35;;;;;;;;;;;;;;;23.74;84.41;97082.06;589395;241;65515;-66
2022/08/30 07:01:05;;;;;;;;;;;;;;;23.75;84.23;97086.33;590898;236;65352;-66
2022/08/30 07:03:34;;;;;;;;;;;;;;;23.75;84.13;97088.22;595667;236;65308;-67
2022/08/30 07:06:03;;;;;;;;;;;;;;;23.75;84.03;97094.38;595014;236;64191;-65
2022/08/30 07:08:31;;;;;;;;;;;;;;;23.75;83.97;97099.74;595146;236;65180;-65
2022/08/30 07:10:59;;;;;;;;;;;;;;;23.75;83.89;97091.70;595674;236;65034;-65
2022/08/30 07:13:27;;;;;;;;;;;;;;;23.76;83.83;97095.17;594600;236;65376;-65
2022/08/30 07:15:56;;;;;;;;;;;;;;;23.76;83.76;97089.80;595181;236;65202;-65
2022/08/30 07:21:11;;;;;;;;;;;;;;;23.76;83.66;97098.65;594822;236;65316;-65
2022/08/30 07:23:45;;;;;;;;;;;;;;;23.75;83.60;97090.91;594077;237;65118;-65
2022/08/30 07:26:16;;;;;;;;;;;;;;;23.76;83.56;97108.59;590936;237;47205;-65
2022/08/30 07:28:45;;;;;;;;;;;;;;;23.76;83.54;97097.86;594118;237;65625;-65
2022/08/30 07:31:15;;;;;;;;;;;;;;;23.76;83.50;97100.54;598872;237;63463;-65
2022/08/30 07:33:43;;;;;;;;;;;;;;;23.76;83.43;97106.70;598961;237;62697;-66
2022/08/30 07:36:12;;;;;;;;;;;;;;;23.75;83.43;97096.27;598940;237;63349;-65
2022/08/30 07:38:41;;;;;;;;;;;;;;;23.76;83.39;97108.59;598905;237;65068;-65
2022/08/30 07:41:10;;;;;;;;;;;;;;;23.75;83.33;97102.43;598970;237;65118;-65
2022/08/30 07:43:42;;;;;;;;;;;;;;;23.76;83.28;97114.75;598858;237;65755;-65
2022/08/30 07:46:10;;;;;;;;;;;;;;;23.76;83.18;97111.27;598980;237;65704;-66
2022/08/30 07:48:46;;;;;;;;;;;;;;;23.76;83.21;97113.95;598960;237;63062;-64
2022/08/30 07:51:19;;;;;;;;;;;;;;;23.77;83.17;97115.57;598631;236;46364;-67
2022/08/30 07:53:46;;;;;;;;;;;;;;;23.75;83.26;97113.16;598848;237;63323;-67
2022/08/30 07:56:15;;;;;;;;;;;;;;;23.75;83.17;97118.53;598914;237;65078;-67
2022/08/30 07:58:44;;;;;;;;;;;;;;;23.76;83.17;97120.11;598829;237;65573;-68
2022/08/30 08:01:16;;;;;;;;;;;;;;;23.76;83.13;97124.69;598947;237;65288;-67
2022/08/30 08:03:49;;;;;;;;;;;;;;;23.77;83.11;97126.30;598915;237;64736;-68
2022/08/30 08:06:18;;;;;;;;;;;;;;;23.77;83.23;97127.09;598860;237;65596;-66
2022/08/30 08:08:46;;;;;;;;;;;;;;;23.76;83.00;97124.69;598805;237;63207;-66
2022/08/30 08:11:17;;;;;;;;;;;;;;;23.76;82.80;97122.01;598852;237;62546;-66
2022/08/30 08:13:46;;;;;;;;;;;;;;;23.76;82.70;97130.05;598951;237;65428;-66
2022/08/30 08:16:16;;;;;;;;;;;;;;;23.76;82.63;97135.42;598884;237;65737;-65
2022/08/30 08:18:52;;;;;;;;;;;;;;;23.76;82.66;97135.42;598889;232;65133;-65
2022/08/30 08:21:21;;;;;;;;;;;;;;;23.76;82.73;97128.17;598833;235;65554;-67
2022/08/30 08:23:50;;;;;;;;;;;;;;;23.75;82.70;97131.95;598930;237;63297;-66
2022/08/30 08:26:18;;;;;;;;;;;;;;;23.76;82.70;97130.84;598924;237;65036;-64
2022/08/30 08:28:48;;;;;;;;;;;;;;;23.76;82.63;97125.48;598832;237;65709;-66
2022/08/30 08:31:19;;;;;;;;;;;;;;;23.77;82.64;97121.73;598961;237;65002;-65
2022/08/30 08:33:47;;;;;;;;;;;;;;;23.77;82.64;97126.30;598852;237;62601;-66
2022/08/30 08:36:17;;;;;;;;;;;;;;;23.76;82.61;97122.80;598817;237;65871;-65
2022/08/30 08:38:51;;;;;;;;;;;;;;;23.76;82.61;97124.69;598965;237;64915;-65
2022/08/30 08:41:38;;;;;;;;;;;;;;;23.76;82.62;97120.11;598598;237;64865;-65
2022/08/30 08:44:10;;;;;;;;;;;;;;;23.77;82.59;97120.94;598943;237;65512;-65
2022/08/30 08:46:43;;;;;;;;;;;;;;;23.77;82.59;97123.62;598858;232;63355;-65
2022/08/30 08:49:12;;;;;;;;;;;;;;;23.77;82.55;97121.73;599122;234;65119;-65
2022/08/30 08:54:34;;;;;;;;;;;;;;;23.77;82.55;97123.62;598986;237;65382;-65
2022/08/30 08:57:03;;;;;;;;;;;;;;;23.77;82.53;97132.47;598681;237;65076;-65
2022/08/30 08:59:31;;;;;;;;;;;;;;;23.76;82.53;97128.17;598966;237;65650;-68
2022/08/30 09:02:01;;;;;;;;;;;;;;;23.76;82.48;97130.84;599008;237;62668;-66
2022/08/30 09:04:31;;;;;;;;;;;;;;;23.77;82.50;97126.30;598997;237;62696;-66
2022/08/30 09:07:02;;;;;;;;;;;;;;;23.77;82.56;97128.98;599022;234;64822;-66
2022/08/30 09:09:31;;;;;;;;;;;;;;;23.77;82.65;97123.62;598978;237;65057;-68
2022/08/30 09:12:00;;;;;;;;;;;;;;;23.78;82.76;97122.53;598927;237;65064;-69
2022/08/30 09:14:29;;;;;;;;;;;;;;;23.78;82.77;97125.21;598915;237;65385;-65
2022/08/30 09:16:59;;;;;;;;;;;;;;;23.78;82.77;97123.32;598956;237;65496;-69
2022/08/30 09:19:41;;;;;;;;;;;;;;;23.78;82.75;97127.89;598948;237;65183;-64
2022/08/30 09:22:27;;;;;;;;;;;;;;;23.80;81.88;97120.36;598968;236;62450;-64
2022/08/30 09:24:56;;;;;;;;;;;;;;;23.80;81.22;97121.16;598887;237;65273;-74
2022/08/30 09:27:26;;;;;;;;;;;;;;;23.79;82.26;97119.57;598992;232;62795;-65
2022/08/30 09:29:55;;;;;;;;;;;;;;;23.80;82.40;97115.79;598906;237;65496;-66
2022/08/30 09:32:25;;;;;;;;;;;;;;;23.80;82.92;97115.00;599120;237;62825;-66
2022/08/30 09:34:54;;;;;;;;;;;;;;;23.79;83.09;97114.20;599156;234;63669;-64
2022/08/30 09:37:24;;;;;;;;;;;;;;;23.79;83.05;97108.02;598878;237;65600;-64
2022/08/30 09:39:53;;;;;;;;;;;;;;;23.78;82.96;97115.27;599008;234;64820;-67
2022/08/30 09:42:25;;;;;;;;;;;;;;;23.78;82.91;97115.27;598861;237;62774;-67
2022/08/30 09:45:09;;;;;;;;;;;;;;;23.79;82.84;97116.06;598885;237;65459;-67
2022/08/30 09:47:30;;;;;;;;;;;;;;;23.79;82.82;97110.70;598464;236;65203;-66
2022/08/30 09:50:12;;;;;;;;;;;;;;;23.79;82.81;97114.20;598849;237;65092;-66
2022/08/30 09:52:44;;;;;;;;;;;;;;;23.79;82.79;97108.84;598855;237;65182;-66
2022/08/30 09:55:20;;;;;;;;;;;;;;;23.79;82.84;97110.70;599002;237;65638;-63
2022/08/30 09:57:51;;;;;;;;;;;;;;;23.80;82.90;97109.63;598913;232;63070;-63
2022/08/30 10:00:27;;;;;;;;;;;;;;;23.79;82.95;97111.52;598891;232;65684;-65
2022/08/30 10:03:00;;;;;;;;;;;;;;;23.79;82.96;97114.20;598975;237;63546;-66
2022/08/30 10:05:38;;;;;;;;;;;;;;;23.79;82.95;97106.16;598934;232;65033;-65
2022/08/30 10:08:11;;;;;;;;;;;;;;;23.80;83.00;97101.58;599186;232;62728;-67
2022/08/30 10:10:41;;;;;;;;;;;;;;;23.80;83.02;97090.84;598882;237;65029;-66
2022/08/30 10:13:29;;;;;;;;;;;;;;;23.79;83.00;97091.91;598864;237;65138;-67
2022/08/30 10:15:59;;;;;;;;;;;;;;;23.79;83.02;97091.91;598938;237;67782;-65
2022/08/30 10:18:37;;;;;;;;;;;;;;;23.80;83.03;97093.53;599211;232;64345;-65
2022/08/30 10:21:06;;;;;;;;;;;;;;;23.80;83.01;97097.00;599348;232;65315;-68
2022/08/30 10:23:36;;;;;;;;;;;;;;;23.80;83.03;97110.42;600267;236;65082;-66
2022/08/30 10:26:15;;;;;;;;;;;;;;;23.80;83.01;97104.27;600384;232;64804;-68
2022/08/30 10:28:45;;;;;;;;;;;;;;;23.80;83.04;97099.69;600329;232;62520;-67
2022/08/30 10:31:15;;;;;;;;;;;;;;;23.80;82.99;97105.05;600291;236;66563;-67
2022/08/30 10:33:44;;;;;;;;;;;;;;;23.80;82.94;97094.32;599857;234;62907;-67
2022/08/30 10:36:14;;;;;;;;;;;;;;;23.81;82.89;97097.80;600233;236;65146;-67
2022/08/30 10:38:43;;;;;;;;;;;;;;;23.81;82.53;97095.11;600345;236;63103;-67
2022/08/30 10:41:29;;;;;;;;;;;;;;;23.81;82.79;97095.11;599771;232;65497;-67
2022/08/30 10:43:59;;;;;;;;;;;;;;;23.82;82.83;97102.89;599694;236;65049;-67
2022/08/30 10:46:31;;;;;;;;;;;;;;;23.81;82.87;97103.95;599836;236;66747;-70
2022/08/30 10:49:00;;;;;;;;;;;;;;;23.82;82.86;97107.47;600278;236;65192;-67
2022/08/30 10:51:42;;;;;;;;;;;;;;;23.82;82.72;97116.31;600278;236;63722;-67
2022/08/30 10:54:17;;;;;;;;;;;;;;;23.81;82.41;97114.69;600320;232;63257;-67
2022/08/30 10:56:46;;;;;;;;;;;;;;;23.82;82.42;97119.00;599874;234;65114;-69
2022/08/30 10:59:16;;;;;;;;;;;;;;;23.82;82.46;97112.83;600250;236;65059;-68
2022/08/30 11:01:55;;;;;;;;;;;;;;;23.83;82.65;97114.42;600308;236;65486;-68
2022/08/30 11:04:33;;;;;;;;;;;;;;;23.83;82.62;97109.05;600207;236;65202;-67
2022/08/30 11:07:18;;;;;;;;;;;;;;;23.84;80.11;97116.01;600630;232;64943;-67
2022/08/30 11:10:04;;;;;;;;;;;;;;;23.85;81.65;97112.25;600266;236;63476;-68
2022/08/30 11:12:40;;;;;;;;;;;;;;;23.85;82.13;97120.30;600301;236;65256;-67
2022/08/30 11:15:15;;;;;;;;;;;;;;;23.85;82.66;97117.63;600325;236;65253;-68
2022/08/30 11:17:44;;;;;;;;;;;;;;;23.84;82.72;97116.01;600039;236;63487;-68
2022/08/30 11:20:23;;;;;;;;;;;;;;;23.83;82.80;97115.21;600140;234;65803;-67
2022/08/30 11:23:09;;;;;;;;;;;;;;;23.84;82.77;97107.95;599025;232;62909;-66
2022/08/30 11:25:59;;;;;;;;;;;;;;;23.83;82.78;97107.16;598818;237;65506;-67
2022/08/30 11:28:34;;;;;;;;;;;;;;;23.84;82.74;97099.91;598995;237;63301;-67
2022/08/30 11:31:14;;;;;;;;;;;;;;;23.83;82.64;97099.11;599049;234;66446;-67
2022/08/30 11:33:46;;;;;;;;;;;;;;;23.84;82.69;97105.27;599642;232;63682;-66
2022/08/30 11:36:32;;;;;;;;;;;;;;;23.84;82.67;97095.33;598790;237;65409;-68
2022/08/30 11:39:02;;;;;;;;;;;;;;;23.85;82.65;97101.52;598910;237;62762;-67
2022/08/30 11:41:31;;;;;;;;;;;;;;;23.84;82.64;97100.70;598966;237;65158;-67
2022/08/30 11:44:18;;;;;;;;;;;;;;;23.84;82.61;97094.53;598812;237;65307;-66
2022/08/30 11:46:48;;;;;;;;;;;;;;;23.85;82.66;97090.78;598873;237;63741;-67
2022/08/30 11:49:20;;;;;;;;;;;;;;;23.85;82.60;97096.16;598796;237;65895;-67
2022/08/30 11:52:03;;;;;;;;;;;;;;;23.85;82.67;97086.20;598873;237;62737;-68
2022/08/30 11:54:35;;;;;;;;;;;;;;;23.84;82.66;97073.86;599337;235;65032;-68
2022/08/30 11:57:23;;;;;;;;;;;;;;;23.85;82.66;97085.42;598859;237;65685;-67
2022/08/30 11:59:53;;;;;;;;;;;;;;;23.85;82.71;97080.05;598919;237;65259;-64
2022/08/30 12:02:39;;;;;;;;;;;;;;;23.85;82.61;97091.58;598833;237;63097;-67
2022/08/30 12:05:07;;;;;;;;;;;;;;;23.85;82.37;97096.16;599012;237;63698;-63
2022/08/30 12:07:53;;;;;;;;;;;;;;;23.85;82.86;97099.63;598806;237;65422;-66
2022/08/30 12:10:23;;;;;;;;;;;;;;;23.85;82.41;97106.89;598948;237;65448;-68
2022/08/30 12:12:51;;;;;;;;;;;;;;;23.86;82.83;97097.73;598917;237;65617;-67
2022/08/30 12:15:28;;;;;;;;;;;;;;;23.85;82.99;97101.52;598847;237;65304;-68
2022/08/30 12:20:44;;;;;;;;;;;;;;;23.85;82.45;97088.10;598935;236;62936;-66
2022/08/30 12:23:14;;;;;;;;;;;;;;;23.86;82.79;97077.06;597674;236;62805;-66
2022/08/30 12:25:42;;;;;;;;;;;;;;;23.85;83.03;97063.95;591732;234;65050;-67
2022/08/30 12:28:14;;;;;;;;;;;;;;;23.85;83.04;97067.42;588395;241;65459;-66
2022/08/30 12:30:44;;;;;;;;;;;;;;;23.84;83.01;97063.12;587477;241;65019;-69
2022/08/30 12:33:15;;;;;;;;;;;;;;;23.85;82.99;97056.69;588416;241;62977;-67
2022/08/30 12:35:44;;;;;;;;;;;;;;;23.84;82.94;97049.70;588738;241;66296;-67
2022/08/30 12:38:16;;;;;;;;;;;;;;;23.85;82.91;97042.48;588605;241;65682;-66
2022/08/30 12:40:57;;;;;;;;;;;;;;;23.85;82.83;97037.91;589140;240;63029;-66
2022/08/30 12:43:28;;;;;;;;;;;;;;;23.85;82.75;97053.22;589129;241;65770;-67
2022/08/30 12:45:58;;;;;;;;;;;;;;;23.85;82.71;97051.33;588881;241;62877;-67
2022/08/30 12:48:28;;;;;;;;;;;;;;;23.86;82.71;97046.75;589370;241;65042;-66
2022/08/30 12:50:59;;;;;;;;;;;;;;;23.85;82.69;97045.95;589375;238;65675;-67
2022/08/30 12:53:36;;;;;;;;;;;;;;;23.85;82.68;97050.53;589348;241;63273;-69
2022/08/30 12:56:08;;;;;;;;;;;;;;;23.86;82.71;97038.70;589417;241;65089;-68
2022/08/30 12:58:42;;;;;;;;;;;;;;;23.86;82.51;97038.70;589320;241;65120;-68
2022/08/30 13:01:20;;;;;;;;;;;;;;;23.86;82.54;97038.70;589389;241;66316;-69
2022/08/30 13:03:59;;;;;;;;;;;;;;;23.86;82.53;97039.48;589193;241;65169;-68
2022/08/30 13:06:37;;;;;;;;;;;;;;;23.85;82.62;97035.22;589287;241;63369;-68
2022/08/30 13:09:05;;;;;;;;;;;;;;;23.85;82.67;97042.48;589405;241;65497;-67
2022/08/30 13:11:34;;;;;;;;;;;;;;;23.87;82.30;97040.28;589301;241;65032;-67
2022/08/30 13:14:22;;;;;;;;;;;;;;;23.87;82.76;97040.28;589251;241;63035;-67
2022/08/30 13:16:50;;;;;;;;;;;;;;;23.86;82.52;97046.75;589086;241;63369;-68